createdAt,value
2019-02-26T00:00:31.391Z,8.23
2019-02-26T00:03:04.533Z,8.47
2019-02-26T00:05:34.672Z,6.40
2019-02-26T00:08:06.613Z,6.70
2019-02-26T00:10:43.017Z,7.10
2019-02-26T00:13:15.120Z,7.73
2019-02-26T00:15:48.454Z,8.47
2019-02-26T00:18:21.368Z,7.10
2019-02-26T00:20:54.522Z,8.53
2019-02-26T00:23:27.913Z,7.90
2019-02-26T00:26:01.158Z,6.43
2019-02-26T00:28:51.678Z,7.83
2019-02-26T00:31:23.895Z,8.10
2019-02-26T00:33:58.231Z,7.90
2019-02-26T00:36:31.515Z,10.13
2019-02-26T00:39:05.028Z,8.57
2019-02-26T00:41:41.456Z,6.77
2019-02-26T00:44:15.796Z,7.30
2019-02-26T00:46:46.392Z,8.97
2019-02-26T00:49:19.103Z,7.60
2019-02-26T00:51:52.803Z,8.03
2019-02-26T00:54:24.511Z,7.13
2019-02-26T00:56:59.078Z,8.57
2019-02-26T00:59:27.768Z,12.50
2019-02-26T01:01:59.368Z,8.77
2019-02-26T01:04:30.263Z,6.43
2019-02-26T01:07:03.815Z,7.40
2019-02-26T01:09:35.639Z,7.33
2019-02-26T01:12:09.196Z,7.10
2019-02-26T01:14:41.386Z,9.13
2019-02-26T01:17:14.851Z,9.47
2019-02-26T01:19:47.266Z,10.03
2019-02-26T01:22:17.830Z,8.57
2019-02-26T01:24:49.797Z,7.33
2019-02-26T01:27:20.633Z,9.57
2019-02-26T01:29:53.519Z,8.53
2019-02-26T01:32:24.917Z,7.97
2019-02-26T01:34:55.793Z,8.47
2019-02-26T01:37:27.858Z,15.37
2019-02-26T01:39:59.337Z,8.67
2019-02-26T01:42:31.638Z,9.17
2019-02-26T01:45:03.876Z,7.00
2019-02-26T01:47:34.720Z,8.73
2019-02-26T01:50:08.764Z,11.00
2019-02-26T01:52:39.793Z,11.83
2019-02-26T01:55:11.381Z,7.07
2019-02-26T01:57:43.591Z,9.83
2019-02-26T02:00:15.815Z,6.73
2019-02-26T02:02:50.295Z,7.30
2019-02-26T02:05:22.048Z,9.10
2019-02-26T02:07:54.093Z,8.67
2019-02-26T02:10:25.899Z,8.50
2019-02-26T02:12:59.598Z,10.03
2019-02-26T02:15:29.343Z,10.13
2019-02-26T02:18:01.765Z,7.47
2019-02-26T02:20:32.831Z,7.23
2019-02-26T02:23:05.244Z,7.47
2019-02-26T02:25:38.016Z,8.00
2019-02-26T02:28:08.428Z,7.93
2019-02-26T02:30:40.011Z,7.53
2019-02-26T02:33:10.912Z,10.40
2019-02-26T02:35:41.732Z,9.03
2019-02-26T02:38:12.240Z,8.57
2019-02-26T02:40:46.233Z,7.57
2019-02-26T02:43:18.074Z,8.93
2019-02-26T02:45:49.973Z,8.27
2019-02-26T02:48:23.487Z,7.53
2019-02-26T02:50:54.417Z,6.83
2019-02-26T02:53:27.449Z,7.27
2019-02-26T02:55:57.590Z,11.30
2019-02-26T02:58:28.174Z,8.30
2019-02-26T03:01:00.328Z,8.17
2019-02-26T03:03:31.307Z,8.03
2019-02-26T03:06:04.895Z,7.57
2019-02-26T03:08:35.553Z,8.77
2019-02-26T03:11:10.542Z,7.20
2019-02-26T03:13:43.085Z,8.03
2019-02-26T03:16:15.791Z,8.57
2019-02-26T03:18:51.996Z,7.77
2019-02-26T03:21:24.738Z,10.57
2019-02-26T03:24:00.888Z,7.87
2019-02-26T03:26:31.348Z,7.43
2019-02-26T03:29:02.596Z,7.10
2019-02-26T03:31:39.715Z,7.17
2019-02-26T03:34:10.389Z,7.73
2019-02-26T03:36:45.056Z,7.70
2019-02-26T03:39:13.775Z,6.53
2019-02-26T03:41:46.101Z,9.30
2019-02-26T03:44:17.386Z,9.47
2019-02-26T03:46:48.330Z,8.33
2019-02-26T03:49:19.114Z,6.43
2019-02-26T03:51:50.061Z,8.93
2019-02-26T03:54:20.591Z,9.60
2019-02-26T03:56:52.949Z,8.77
2019-02-26T03:59:26.814Z,9.93
2019-02-26T04:01:57.747Z,10.10
2019-02-26T04:04:31.131Z,8.93
2019-02-26T04:07:07.173Z,7.13
2019-02-26T04:09:39.110Z,7.47
2019-02-26T04:12:11.265Z,8.90
2019-02-26T04:14:43.252Z,10.53
2019-02-26T04:17:14.156Z,15.47
2019-02-26T04:19:45.651Z,11.47
2019-02-26T04:22:32.977Z,8.43
2019-02-26T04:25:27.936Z,9.03
2019-02-26T04:28:19.232Z,7.37
2019-02-26T04:31:57.619Z,7.43
2019-02-26T04:34:56.921Z,9.23
2019-02-26T04:38:07.013Z,8.17
2019-02-26T04:41:13.402Z,10.07
2019-02-26T04:44:36.210Z,7.33
2019-02-26T04:47:33.731Z,9.00
2019-02-26T04:50:10.791Z,9.53
2019-02-26T04:52:46.066Z,10.27
2019-02-26T04:55:17.245Z,12.23
2019-02-26T04:57:49.061Z,11.83
2019-02-26T05:00:26.762Z,11.97
2019-02-26T05:02:55.896Z,8.40
2019-02-26T05:05:30.673Z,11.00
2019-02-26T05:07:58.772Z,7.57
2019-02-26T05:10:31.941Z,7.63
2019-02-26T05:13:03.963Z,9.73
2019-02-26T05:15:37.083Z,8.90
2019-02-26T05:18:07.608Z,8.30
2019-02-26T05:20:43.099Z,7.13
2019-02-26T05:23:16.095Z,7.57
2019-02-26T05:25:46.874Z,5.97
2019-02-26T05:28:17.829Z,6.60
2019-02-26T05:30:49.657Z,9.30
2019-02-26T05:33:21.592Z,9.23
2019-02-26T05:35:53.475Z,8.57
2019-02-26T05:38:26.436Z,7.87
2019-02-26T05:40:57.371Z,10.83
2019-02-26T05:43:28.839Z,7.83
2019-02-26T05:46:03.875Z,6.80
2019-02-26T05:48:33.162Z,9.13
2019-02-26T05:51:08.825Z,10.20
2019-02-26T05:53:38.551Z,9.97
2019-02-26T05:56:11.635Z,10.83
2019-02-26T05:58:46.396Z,6.67
2019-02-26T06:01:16.854Z,9.67
2019-02-26T06:03:51.903Z,12.47
2019-02-26T06:06:22.584Z,9.77
2019-02-26T06:08:57.960Z,8.50
2019-02-26T06:11:33.266Z,8.40
2019-02-26T06:14:06.603Z,7.03
2019-02-26T06:16:37.079Z,6.17
2019-02-26T06:19:13.373Z,9.83
2019-02-26T06:21:46.634Z,6.63
2019-02-26T06:24:29.697Z,9.97
2019-02-26T06:27:08.630Z,10.00
2019-02-26T06:29:37.475Z,10.90
2019-02-26T06:32:12.035Z,6.33
2019-02-26T06:34:43.460Z,7.63
2019-02-26T06:37:20.449Z,14.73
2019-02-26T06:39:55.697Z,11.13
2019-02-26T06:42:28.333Z,8.03
2019-02-26T06:44:59.273Z,7.93
2019-02-26T06:47:33.329Z,6.57
2019-02-26T06:50:07.502Z,6.83
2019-02-26T06:52:39.445Z,8.67
2019-02-26T06:55:10.322Z,8.10
2019-02-26T06:57:47.219Z,7.63
2019-02-26T07:00:21.011Z,9.63
2019-02-26T07:02:52.061Z,8.63
2019-02-26T07:05:24.505Z,9.67
2019-02-26T07:07:57.039Z,10.00
2019-02-26T07:10:31.380Z,6.33
2019-02-26T07:13:02.148Z,8.93
2019-02-26T07:15:34.936Z,9.27
2019-02-26T07:18:12.234Z,8.03
2019-02-26T07:20:46.638Z,8.23
2019-02-26T07:23:15.551Z,10.80
2019-02-26T07:25:46.278Z,8.00
2019-02-26T07:28:18.263Z,7.90
2019-02-26T07:30:50.045Z,8.63
2019-02-26T07:33:21.959Z,7.53
2019-02-26T07:35:55.150Z,9.13
2019-02-26T07:38:28.533Z,9.23
2019-02-26T07:41:01.354Z,7.37
2019-02-26T07:43:36.658Z,8.93
2019-02-26T07:46:06.408Z,7.67
2019-02-26T07:48:37.562Z,8.27
2019-02-26T07:51:08.604Z,8.87
2019-02-26T07:53:42.007Z,12.50
2019-02-26T07:56:13.324Z,12.40
2019-02-26T07:58:44.373Z,11.10
2019-02-26T08:01:15.669Z,8.27
2019-02-26T08:03:48.704Z,8.70
2019-02-26T08:06:19.517Z,8.80
2019-02-26T08:08:50.238Z,11.50
2019-02-26T08:11:21.189Z,12.87
2019-02-26T08:13:54.235Z,10.97
2019-02-26T08:16:27.540Z,12.40
2019-02-26T08:19:01.427Z,10.67
2019-02-26T08:21:33.856Z,9.40
2019-02-26T08:24:06.990Z,12.13
2019-02-26T08:26:40.582Z,10.90
2019-02-26T08:29:13.080Z,9.73
2019-02-26T08:31:46.743Z,10.50
2019-02-26T08:34:16.866Z,14.47
2019-02-26T08:36:51.098Z,12.47
2019-02-26T08:39:26.675Z,15.53
2019-02-26T08:42:04.969Z,19.63
2019-02-26T08:44:35.755Z,23.10
2019-02-26T08:47:11.183Z,19.40
2019-02-26T08:49:47.474Z,19.67
2019-02-26T08:52:22.113Z,21.93
2019-02-26T08:54:55.885Z,19.73
2019-02-26T08:57:29.317Z,15.73
2019-02-26T09:00:02.804Z,12.33
2019-02-26T09:02:46.010Z,15.50
2019-02-26T09:05:20.794Z,23.50
2019-02-26T09:07:53.579Z,12.97
2019-02-26T09:10:29.650Z,19.67
2019-02-26T09:13:14.666Z,22.53
2019-02-26T09:15:46.345Z,18.90
2019-02-26T09:18:24.569Z,19.83
2019-02-26T09:20:54.756Z,19.13
2019-02-26T09:23:30.450Z,9.57
2019-02-26T09:26:02.584Z,10.57
2019-02-26T09:28:35.343Z,9.07
2019-02-26T09:31:06.799Z,8.30
2019-02-26T09:33:43.564Z,13.03
2019-02-26T09:36:18.617Z,10.03
2019-02-26T09:38:53.346Z,12.43
2019-02-26T09:41:24.088Z,11.53
2019-02-26T09:43:54.838Z,11.27
2019-02-26T09:46:26.842Z,10.40
2019-02-26T09:49:00.349Z,15.13
2019-02-26T09:51:32.994Z,11.73
2019-02-26T09:54:05.080Z,9.13
2019-02-26T09:56:43.812Z,11.77
2019-02-26T09:59:17.615Z,18.67
2019-02-26T10:01:54.150Z,21.87
2019-02-26T10:04:26.538Z,17.83
2019-02-26T10:07:06.841Z,14.33
2019-02-26T10:09:48.086Z,13.50
2019-02-26T10:12:18.664Z,12.57
2019-02-26T10:14:52.310Z,11.30
2019-02-26T10:17:24.111Z,20.27
2019-02-26T10:19:59.232Z,10.47
2019-02-26T10:22:33.303Z,12.70
2019-02-26T10:25:03.174Z,9.37
2019-02-26T10:27:38.790Z,13.00
2019-02-26T10:30:16.207Z,12.83
2019-02-26T10:32:47.106Z,12.17
2019-02-26T10:35:33.131Z,11.00
2019-02-26T10:38:12.546Z,12.13
2019-02-26T10:40:53.482Z,9.70
2019-02-26T10:43:17.083Z,8.87
2019-02-26T10:45:50.049Z,10.83
2019-02-26T10:48:22.841Z,8.33
2019-02-26T10:50:56.746Z,8.23
2019-02-26T10:53:30.717Z,11.13
2019-02-26T10:56:01.334Z,10.90
2019-02-26T10:58:32.214Z,9.40
2019-02-26T11:01:05.519Z,11.40
2019-02-26T11:03:41.650Z,13.27
2019-02-26T11:06:15.888Z,12.53
2019-02-26T11:08:44.111Z,10.73
2019-02-26T11:11:18.191Z,10.80
2019-02-26T11:13:53.830Z,11.13
2019-02-26T11:16:27.828Z,9.07
2019-02-26T11:19:02.399Z,10.83
2019-02-26T11:22:06.784Z,12.60
2019-02-26T11:24:39.246Z,12.60
2019-02-26T11:27:11.802Z,11.67
2019-02-26T11:29:54.640Z,9.90
2019-02-26T11:32:27.814Z,10.77
2019-02-26T11:35:01.817Z,9.73
2019-02-26T11:37:32.134Z,12.23
2019-02-26T11:40:25.287Z,9.80
2019-02-26T11:42:59.800Z,10.77
2019-02-26T11:45:32.855Z,10.57
2019-02-26T11:48:11.080Z,10.77
2019-02-26T11:50:45.169Z,10.47
2019-02-26T11:53:38.696Z,11.53
2019-02-26T11:56:09.843Z,11.30
2019-02-26T11:58:42.876Z,11.47
2019-02-26T12:01:15.100Z,11.90
2019-02-26T12:03:46.319Z,13.03
2019-02-26T12:06:20.777Z,9.93
2019-02-26T12:08:51.492Z,10.93
2019-02-26T12:11:23.789Z,11.33
2019-02-26T12:13:57.767Z,10.93
2019-02-26T12:16:28.824Z,11.80
2019-02-26T12:19:16.294Z,10.70
2019-02-26T12:21:51.874Z,17.80
2019-02-26T12:24:33.470Z,12.57
2019-02-26T12:27:03.923Z,11.23
2019-02-26T12:29:35.784Z,12.37
2019-02-26T12:32:10.454Z,14.40
2019-02-26T12:34:47.738Z,10.87
2019-02-26T12:37:21.142Z,10.77
2019-02-26T12:39:54.347Z,9.93
2019-02-26T12:42:31.095Z,15.23
2019-02-26T12:45:06.303Z,12.00
2019-02-26T12:47:39.798Z,9.47
2019-02-26T12:50:19.439Z,10.67
2019-02-26T12:52:51.595Z,10.27
2019-02-26T12:55:28.847Z,9.13
2019-02-26T12:57:56.459Z,10.57
2019-02-26T13:00:27.934Z,11.90
2019-02-26T13:02:58.548Z,9.27
2019-02-26T13:05:35.234Z,8.33
2019-02-26T13:08:12.773Z,8.43
2019-02-26T13:10:59.128Z,6.93
2019-02-26T13:13:30.039Z,6.80
2019-02-26T13:16:00.718Z,7.83
2019-02-26T13:18:31.820Z,4.83
2019-02-26T13:21:23.052Z,9.07
2019-02-26T13:23:58.531Z,5.10
2019-02-26T13:26:34.900Z,4.90
2019-02-26T13:29:05.152Z,4.87
2019-02-26T13:31:41.895Z,5.17
2019-02-26T13:34:14.032Z,6.33
2019-02-26T13:36:43.787Z,4.57
2019-02-26T13:39:29.664Z,4.97
2019-02-26T13:42:03.685Z,4.37
2019-02-26T13:44:31.243Z,4.57
2019-02-26T13:47:08.211Z,3.97
2019-02-26T13:49:42.160Z,4.67
2019-02-26T13:52:12.984Z,4.40
2019-02-26T13:54:43.761Z,4.70
2019-02-26T13:57:14.589Z,3.83
2019-02-26T13:59:45.327Z,4.00
2019-02-26T14:02:17.066Z,3.73
2019-02-26T14:04:51.169Z,6.37
2019-02-26T14:07:25.296Z,4.70
2019-02-26T14:10:02.087Z,4.37
2019-02-26T14:12:36.941Z,4.00
2019-02-26T14:15:09.143Z,4.03
2019-02-26T14:17:39.969Z,3.17
2019-02-26T14:20:14.501Z,3.07
2019-02-26T14:22:46.890Z,3.20
2019-02-26T14:25:19.927Z,4.57
2019-02-26T14:27:53.253Z,5.30
2019-02-26T14:30:25.565Z,4.67
2019-02-26T14:32:59.951Z,3.83
2019-02-26T14:35:31.093Z,5.53
2019-02-26T14:38:04.955Z,7.67
2019-02-26T14:40:37.372Z,4.27
2019-02-26T14:43:10.106Z,4.47
2019-02-26T14:45:47.255Z,5.50
2019-02-26T14:48:20.003Z,4.27
2019-02-26T14:50:50.826Z,3.40
2019-02-26T14:53:23.178Z,5.83
2019-02-26T14:55:53.895Z,3.47
2019-02-26T14:58:26.587Z,5.07
2019-02-26T15:01:00.328Z,8.13
2019-02-26T15:03:39.571Z,4.93
2019-02-26T15:06:20.284Z,5.47
2019-02-26T15:09:00.909Z,4.33
2019-02-26T15:11:36.329Z,4.33
2019-02-26T15:14:28.921Z,5.43
2019-02-26T15:16:59.707Z,6.10
2019-02-26T15:19:33.932Z,4.13
2019-02-26T15:22:10.952Z,5.93
2019-02-26T15:24:44.545Z,6.23
2019-02-26T15:27:15.117Z,4.83
2019-02-26T15:29:47.928Z,6.63
2019-02-26T15:32:18.895Z,5.43
2019-02-26T15:34:49.659Z,6.00
2019-02-26T15:37:24.938Z,7.23
2019-02-26T15:39:59.018Z,11.70
2019-02-26T15:42:29.896Z,6.73
2019-02-26T15:45:02.737Z,6.37
2019-02-26T15:47:39.450Z,8.80
2019-02-26T15:50:17.310Z,8.43
2019-02-26T15:52:54.117Z,6.30
2019-02-26T15:55:25.952Z,10.07
2019-02-26T15:57:57.732Z,6.57
2019-02-26T16:00:31.716Z,7.23
2019-02-26T16:03:06.408Z,13.30
2019-02-26T16:05:57.779Z,11.47
2019-02-26T16:08:34.661Z,6.87
2019-02-26T16:11:13.217Z,6.17
2019-02-26T16:13:50.086Z,16.97
2019-02-26T16:16:21.166Z,8.07
2019-02-26T16:18:52.220Z,8.93
2019-02-26T16:21:22.838Z,6.53
2019-02-26T16:23:59.029Z,6.20
2019-02-26T16:26:34.051Z,6.53
2019-02-26T16:29:10.244Z,6.23
2019-02-26T16:31:43.101Z,13.00
2019-02-26T16:34:13.669Z,6.57
2019-02-26T16:36:50.503Z,6.00
2019-02-26T16:39:25.515Z,4.50
2019-02-26T16:41:56.558Z,6.60
2019-02-26T16:44:38.653Z,5.03
2019-02-26T16:47:12.622Z,6.43
2019-02-26T16:49:47.370Z,7.83
2019-02-26T16:52:18.320Z,5.20
2019-02-26T16:54:48.971Z,8.33
2019-02-26T16:57:25.737Z,7.60
2019-02-26T16:59:57.157Z,8.33
2019-02-26T17:02:39.410Z,8.23
2019-02-26T17:05:36.791Z,6.53
2019-02-26T17:08:10.853Z,8.13
2019-02-26T17:10:46.333Z,8.77
2019-02-26T17:13:17.086Z,7.60
2019-02-26T17:15:48.095Z,13.70
2019-02-26T17:18:27.098Z,7.70
2019-02-26T17:20:58.113Z,8.37
2019-02-26T17:23:29.540Z,14.07
2019-02-26T17:26:01.855Z,11.23
2019-02-26T17:28:32.886Z,8.93
2019-02-26T17:31:03.885Z,11.10
2019-02-26T17:33:34.866Z,8.10
2019-02-26T17:36:12.524Z,9.53
2019-02-26T17:38:41.353Z,9.27
2019-02-26T17:41:17.191Z,8.23
2019-02-26T17:43:47.950Z,8.60
2019-02-26T17:46:18.634Z,10.43
2019-02-26T17:48:50.321Z,6.43
2019-02-26T17:51:21.008Z,7.87
2019-02-26T17:53:55.926Z,7.67
2019-02-26T17:56:50.846Z,8.83
2019-02-26T17:59:21.547Z,8.23
2019-02-26T18:01:52.754Z,5.03
2019-02-26T18:04:23.565Z,4.83
2019-02-26T18:06:55.349Z,6.60
2019-02-26T18:09:34.391Z,22.60
2019-02-26T18:12:05.125Z,7.93
2019-02-26T18:14:41.032Z,9.63
2019-02-26T18:17:14.251Z,6.93
2019-02-26T18:19:49.432Z,6.90
2019-02-26T18:22:23.265Z,9.83
2019-02-26T18:24:53.978Z,9.07
2019-02-26T18:27:27.695Z,7.63
2019-02-26T18:29:58.743Z,6.17
2019-02-26T18:32:50.525Z,8.37
2019-02-26T18:35:20.626Z,4.87
2019-02-26T18:38:10.170Z,5.93
2019-02-26T18:40:46.140Z,7.90
2019-02-26T18:43:19.604Z,6.70
2019-02-26T18:45:52.830Z,6.63
2019-02-26T18:48:25.270Z,13.23
2019-02-26T18:50:56.179Z,10.33
2019-02-26T18:53:26.767Z,9.43
2019-02-26T18:56:01.804Z,9.00
2019-02-26T18:58:37.269Z,8.53
2019-02-26T19:01:09.523Z,7.67
2019-02-26T19:03:45.807Z,6.37
2019-02-26T19:06:20.764Z,10.27
2019-02-26T19:09:14.738Z,7.40
2019-02-26T19:11:55.500Z,12.40
2019-02-26T19:14:26.526Z,9.00
2019-02-26T19:16:59.381Z,9.87
2019-02-26T19:19:54.655Z,8.83
2019-02-26T19:22:41.630Z,9.83
2019-02-26T19:25:15.654Z,6.77
2019-02-26T19:27:53.015Z,8.97
2019-02-26T19:30:29.252Z,8.50
2019-02-26T19:33:10.365Z,10.47
2019-02-26T19:35:50.577Z,7.43
2019-02-26T19:38:27.240Z,10.90
2019-02-26T19:41:03.122Z,10.87
2019-02-26T19:44:00.150Z,9.83
2019-02-26T19:46:30.115Z,8.43
2019-02-26T19:49:05.583Z,12.07
2019-02-26T19:51:43.770Z,9.10
2019-02-26T19:54:17.526Z,6.63
2019-02-26T19:56:54.696Z,10.63
2019-02-26T19:59:46.841Z,8.13
2019-02-26T20:02:22.103Z,11.20
2019-02-26T20:04:57.483Z,8.50
2019-02-26T20:07:32.204Z,10.47
2019-02-26T20:10:00.909Z,9.63
2019-02-26T20:12:33.491Z,9.00
2019-02-26T20:15:13.325Z,8.93
2019-02-26T20:17:48.948Z,11.50
2019-02-26T20:20:21.548Z,9.07
2019-02-26T20:22:57.077Z,9.13
2019-02-26T20:25:28.926Z,7.40
2019-02-26T20:28:05.484Z,10.07
2019-02-26T20:30:40.751Z,7.77
2019-02-26T20:33:14.023Z,9.47
2019-02-26T20:35:45.874Z,8.40
2019-02-26T20:38:21.451Z,9.53
2019-02-26T20:40:52.361Z,11.40
2019-02-26T20:43:26.028Z,11.87
2019-02-26T20:46:00.948Z,10.17
2019-02-26T20:48:41.183Z,8.70
2019-02-26T20:51:12.221Z,14.03
2019-02-26T20:53:46.224Z,12.87
2019-02-26T20:56:17.974Z,11.43
2019-02-26T20:58:58.837Z,10.70
2019-02-26T21:01:32.513Z,9.40
2019-02-26T21:04:03.250Z,9.70
2019-02-26T21:06:34.307Z,10.40
2019-02-26T21:09:08.517Z,11.90
2019-02-26T21:11:43.640Z,12.23
2019-02-26T21:14:14.426Z,9.63
2019-02-26T21:16:46.328Z,10.87
2019-02-26T21:19:18.023Z,10.13
2019-02-26T21:21:50.905Z,10.40
2019-02-26T21:24:25.546Z,8.30
2019-02-26T21:26:57.798Z,10.93
2019-02-26T21:29:28.868Z,13.53
2019-02-26T21:31:59.416Z,11.07
2019-02-26T21:34:33.728Z,11.40
2019-02-26T21:37:07.201Z,9.67
2019-02-26T21:39:39.283Z,8.93
2019-02-26T21:42:14.085Z,8.90
2019-02-26T21:44:46.263Z,8.53
2019-02-26T21:47:16.910Z,9.70
2019-02-26T21:49:48.763Z,8.33
2019-02-26T21:52:29.943Z,7.50
2019-02-26T21:55:25.039Z,10.70
2019-02-26T21:57:58.139Z,10.63
2019-02-26T22:00:30.376Z,11.00
2019-02-26T22:03:06.134Z,11.37
2019-02-26T22:05:37.913Z,7.53
2019-02-26T22:08:09.809Z,10.60
2019-02-26T22:10:42.878Z,9.27
2019-02-26T22:13:14.061Z,9.30
2019-02-26T22:15:47.191Z,11.97
2019-02-26T22:18:21.108Z,10.83
2019-02-26T22:20:52.202Z,10.00
2019-02-26T22:23:26.096Z,9.93
2019-02-26T22:25:58.269Z,13.60
2019-02-26T22:28:29.224Z,13.23
2019-02-26T22:31:07.107Z,10.43
2019-02-26T22:33:43.198Z,15.17
2019-02-26T22:36:14.297Z,11.83
2019-02-26T22:38:49.128Z,13.37
2019-02-26T22:41:19.888Z,15.37
2019-02-26T22:43:56.087Z,13.20
2019-02-26T22:46:28.189Z,12.63
2019-02-26T22:49:01.232Z,12.70
2019-02-26T22:51:34.848Z,11.20
2019-02-26T22:54:11.404Z,12.27
2019-02-26T22:56:44.674Z,9.67
2019-02-26T22:59:15.486Z,13.17
2019-02-26T23:01:50.488Z,10.07
2019-02-26T23:04:21.341Z,10.37
2019-02-26T23:06:52.829Z,9.40
2019-02-26T23:09:29.686Z,11.37
2019-02-26T23:12:06.191Z,13.03
2019-02-26T23:14:40.521Z,12.43
2019-02-26T23:17:12.176Z,17.47
2019-02-26T23:19:45.716Z,15.73
2019-02-26T23:22:20.926Z,16.03
2019-02-26T23:24:51.795Z,17.27
2019-02-26T23:27:22.713Z,12.77
2019-02-26T23:29:55.712Z,12.60
2019-02-26T23:32:29.683Z,15.23
2019-02-26T23:35:05.244Z,16.93
2019-02-26T23:37:36.370Z,22.03
2019-02-26T23:40:28.914Z,16.57
2019-02-26T23:42:59.471Z,13.63
2019-02-26T23:45:30.229Z,10.90
2019-02-26T23:48:10.280Z,10.50
2019-02-26T23:50:41.334Z,11.50
2019-02-26T23:53:15.291Z,13.50
2019-02-26T23:55:50.274Z,10.83
2019-02-26T23:58:20.933Z,15.27
